createdAt,value
2019-03-17T00:00:43.985Z,52.50
2019-03-17T00:03:11.081Z,52.50
2019-03-17T00:05:38.204Z,52.50
2019-03-17T00:08:05.345Z,52.50
2019-03-17T00:10:32.933Z,52.50
2019-03-17T00:13:00.036Z,52.50
2019-03-17T00:15:27.129Z,52.50
2019-03-17T00:17:54.273Z,52.50
2019-03-17T00:20:21.388Z,52.50
2019-03-17T00:22:48.512Z,52.50
2019-03-17T00:25:15.619Z,53.10
2019-03-17T00:27:42.744Z,52.40
2019-03-17T00:30:09.876Z,52.40
2019-03-17T00:32:36.980Z,52.50
2019-03-17T00:35:04.286Z,52.40
2019-03-17T00:37:31.468Z,52.40
2019-03-17T00:39:58.532Z,52.40
2019-03-17T00:42:25.637Z,52.50
2019-03-17T00:44:52.746Z,52.40
2019-03-17T00:47:19.874Z,52.40
2019-03-17T00:49:46.984Z,52.40
2019-03-17T00:52:14.088Z,52.40
2019-03-17T00:54:41.168Z,52.40
2019-03-17T00:57:08.266Z,52.40
2019-03-17T00:59:35.408Z,52.40
2019-03-17T01:02:02.501Z,52.40
2019-03-17T01:04:29.577Z,52.40
2019-03-17T01:06:56.677Z,52.40
2019-03-17T01:09:23.752Z,52.40
2019-03-17T01:11:50.857Z,52.30
2019-03-17T01:14:17.941Z,52.30
2019-03-17T01:16:45.029Z,52.40
2019-03-17T01:19:12.128Z,52.30
2019-03-17T01:21:39.300Z,52.30
2019-03-17T01:24:06.381Z,52.30
2019-03-17T01:26:33.469Z,52.30
2019-03-17T01:29:00.583Z,52.30
2019-03-17T01:31:27.677Z,52.30
2019-03-17T01:33:54.789Z,52.20
2019-03-17T01:36:21.869Z,52.20
2019-03-17T01:38:49.253Z,52.30
2019-03-17T01:41:16.364Z,52.30
2019-03-17T01:43:43.514Z,52.30
2019-03-17T01:46:10.611Z,52.30
2019-03-17T01:48:37.705Z,52.20
2019-03-17T01:51:04.804Z,52.20
2019-03-17T01:53:31.916Z,52.20
2019-03-17T01:55:59.021Z,52.20
2019-03-17T01:58:26.105Z,52.20
2019-03-17T02:00:53.202Z,52.30
2019-03-17T02:03:20.306Z,52.20
2019-03-17T02:05:47.394Z,52.20
2019-03-17T02:08:14.510Z,52.10
2019-03-17T02:10:41.630Z,52.10
2019-03-17T02:13:08.733Z,52.10
2019-03-17T02:15:35.860Z,52.10
2019-03-17T02:18:02.957Z,52.20
2019-03-17T02:20:30.061Z,52.20
2019-03-17T02:22:57.163Z,52.20
2019-03-17T02:25:24.256Z,52.10
2019-03-17T02:27:51.358Z,52.10
2019-03-17T02:30:18.476Z,52.10
2019-03-17T02:32:45.599Z,52.10
2019-03-17T02:35:12.684Z,52.10
2019-03-17T02:37:39.757Z,52.00
2019-03-17T02:40:06.881Z,52.10
2019-03-17T02:42:33.998Z,52.10
2019-03-17T02:45:01.114Z,52.10
2019-03-17T02:47:28.248Z,52.10
2019-03-17T02:49:55.347Z,52.00
2019-03-17T02:52:22.466Z,52.00
2019-03-17T02:54:49.556Z,52.00
2019-03-17T02:57:16.648Z,52.00
2019-03-17T02:59:43.765Z,52.00
2019-03-17T03:02:11.000Z,52.00
2019-03-17T03:04:37.994Z,52.00
2019-03-17T03:07:05.095Z,51.90
2019-03-17T03:09:32.183Z,52.00
2019-03-17T03:11:59.280Z,52.00
2019-03-17T03:14:26.411Z,52.00
2019-03-17T03:16:53.516Z,51.90
2019-03-17T03:19:20.619Z,51.90
2019-03-17T03:21:47.701Z,52.00
2019-03-17T03:24:14.821Z,51.90
2019-03-17T03:26:41.915Z,51.90
2019-03-17T03:29:09.012Z,51.90
2019-03-17T03:31:36.138Z,51.90
2019-03-17T03:34:03.288Z,51.90
2019-03-17T03:36:30.415Z,51.90
2019-03-17T03:38:57.518Z,51.90
2019-03-17T03:41:24.613Z,51.90
2019-03-17T03:43:51.735Z,51.90
2019-03-17T03:46:18.831Z,51.80
2019-03-17T03:48:45.946Z,51.90
2019-03-17T03:51:13.057Z,51.80
2019-03-17T03:53:40.150Z,51.80
2019-03-17T03:56:07.258Z,52.50
2019-03-17T03:58:34.360Z,51.80
2019-03-17T04:01:01.464Z,51.90
2019-03-17T04:03:28.567Z,51.80
2019-03-17T04:05:55.682Z,51.90
2019-03-17T04:08:22.825Z,51.90
2019-03-17T04:10:49.922Z,51.90
2019-03-17T04:13:17.041Z,51.90
2019-03-17T04:15:44.122Z,51.90
2019-03-17T04:18:11.220Z,51.80
2019-03-17T04:20:38.337Z,51.80
2019-03-17T04:23:05.450Z,51.80
2019-03-17T04:25:32.571Z,51.80
2019-03-17T04:27:59.692Z,51.80
2019-03-17T04:30:26.807Z,51.80
2019-03-17T04:32:53.929Z,51.80
2019-03-17T04:35:21.021Z,51.80
2019-03-17T04:37:48.158Z,51.80
2019-03-17T04:40:15.237Z,51.80
2019-03-17T04:42:42.324Z,51.80
2019-03-17T04:45:09.431Z,51.80
2019-03-17T04:47:36.536Z,51.70
2019-03-17T04:50:03.892Z,51.80
2019-03-17T04:52:30.999Z,51.80
2019-03-17T04:54:58.134Z,51.80
2019-03-17T04:57:25.229Z,51.80
2019-03-17T04:59:52.328Z,51.70
2019-03-17T05:02:19.420Z,51.80
2019-03-17T05:04:46.533Z,51.70
2019-03-17T05:07:13.654Z,51.80
2019-03-17T05:09:40.746Z,51.80
2019-03-17T05:12:07.883Z,51.70
2019-03-17T05:14:34.985Z,51.70
2019-03-17T05:17:02.129Z,51.70
2019-03-17T05:19:29.218Z,51.70
2019-03-17T05:21:56.313Z,51.70
2019-03-17T05:24:23.424Z,51.80
2019-03-17T05:26:50.540Z,51.70
2019-03-17T05:29:17.642Z,51.70
2019-03-17T05:31:44.755Z,51.70
2019-03-17T05:34:11.872Z,51.70
2019-03-17T05:36:38.977Z,51.70
2019-03-17T05:39:06.508Z,51.70
2019-03-17T05:41:33.625Z,51.70
2019-03-17T05:44:00.737Z,51.70
2019-03-17T05:46:27.837Z,51.70
2019-03-17T05:48:54.907Z,51.70
2019-03-17T05:51:22.002Z,51.70
2019-03-17T05:53:49.104Z,51.70
2019-03-17T05:56:16.202Z,51.70
2019-03-17T05:58:43.313Z,51.70
2019-03-17T06:01:10.421Z,51.70
2019-03-17T06:03:37.525Z,51.70
2019-03-17T06:06:04.597Z,51.70
2019-03-17T06:08:33.654Z,51.70
2019-03-17T06:10:58.845Z,51.70
2019-03-17T06:13:25.954Z,51.70
2019-03-17T06:15:53.040Z,51.70
2019-03-17T06:18:20.228Z,51.60
2019-03-17T06:20:47.292Z,51.60
2019-03-17T06:23:14.422Z,51.70
2019-03-17T06:25:41.537Z,51.70
2019-03-17T06:28:08.658Z,51.70
2019-03-17T06:30:35.761Z,51.70
2019-03-17T06:33:03.229Z,51.60
2019-03-17T06:35:30.325Z,51.60
2019-03-17T06:37:57.412Z,51.60
2019-03-17T06:40:24.525Z,51.60
2019-03-17T06:42:51.641Z,51.70
2019-03-17T06:45:18.719Z,51.60
2019-03-17T06:47:45.857Z,51.70
2019-03-17T06:50:13.019Z,51.70
2019-03-17T06:52:40.125Z,51.60
2019-03-17T06:55:08.345Z,51.60
2019-03-17T06:57:35.497Z,51.60
2019-03-17T07:00:02.666Z,51.60
2019-03-17T07:02:29.757Z,51.60
2019-03-17T07:04:56.858Z,51.60
2019-03-17T07:07:23.945Z,51.60
2019-03-17T07:09:51.041Z,51.70
2019-03-17T07:12:18.132Z,51.60
2019-03-17T07:14:45.238Z,51.60
2019-03-17T07:17:12.348Z,51.60
2019-03-17T07:19:39.465Z,51.60
2019-03-17T07:22:06.575Z,51.60
2019-03-17T07:24:33.677Z,51.60
2019-03-17T07:27:00.781Z,51.60
2019-03-17T07:29:27.897Z,51.60
2019-03-17T07:31:55.072Z,51.70
2019-03-17T07:34:22.129Z,51.60
2019-03-17T07:36:49.221Z,51.60
2019-03-17T07:39:16.354Z,51.70
2019-03-17T07:41:43.462Z,51.60
2019-03-17T07:44:10.580Z,51.60
2019-03-17T07:46:37.671Z,51.60
2019-03-17T07:49:04.774Z,51.70
2019-03-17T07:51:31.894Z,51.60
2019-03-17T07:53:59.006Z,51.60
2019-03-17T07:56:26.109Z,51.60
2019-03-17T07:58:53.212Z,51.60
2019-03-17T08:01:20.313Z,51.60
2019-03-17T08:03:47.409Z,51.60
2019-03-17T08:06:14.537Z,51.70
2019-03-17T08:08:41.898Z,51.60
2019-03-17T08:11:08.919Z,51.60
2019-03-17T08:13:36.016Z,51.70
2019-03-17T08:16:03.117Z,51.70
2019-03-17T08:18:30.228Z,51.60
2019-03-17T08:20:57.333Z,51.60
2019-03-17T08:23:24.438Z,51.70
2019-03-17T08:25:51.577Z,51.60
2019-03-17T08:28:18.678Z,51.60
2019-03-17T08:30:53.206Z,51.90
2019-03-17T08:33:12.944Z,51.60
2019-03-17T08:35:40.033Z,51.60
2019-03-17T08:38:07.145Z,51.60
2019-03-17T08:40:34.220Z,51.60
2019-03-17T08:43:01.338Z,51.70
2019-03-17T08:45:28.456Z,51.60
2019-03-17T08:47:58.222Z,51.60
2019-03-17T08:50:22.688Z,51.60
2019-03-17T08:52:49.877Z,51.60
2019-03-17T08:55:17.014Z,51.60
2019-03-17T08:57:44.126Z,51.60
2019-03-17T09:00:11.357Z,51.60
2019-03-17T09:02:38.457Z,51.60
2019-03-17T09:05:05.576Z,52.30
2019-03-17T09:07:32.658Z,51.70
2019-03-17T09:09:59.749Z,51.60
2019-03-17T09:12:26.864Z,51.60
2019-03-17T09:14:53.941Z,51.60
2019-03-17T09:17:21.058Z,51.60
2019-03-17T09:19:48.151Z,51.50
2019-03-17T09:22:15.265Z,51.60
2019-03-17T09:24:42.362Z,51.50
2019-03-17T09:27:09.528Z,51.50
2019-03-17T09:29:36.626Z,51.60
2019-03-17T09:32:03.782Z,51.50
2019-03-17T09:34:30.913Z,51.60
2019-03-17T09:36:57.998Z,51.60
2019-03-17T09:39:25.097Z,51.60
2019-03-17T09:41:52.225Z,51.60
2019-03-17T09:44:19.340Z,51.60
2019-03-17T09:46:46.445Z,51.50
2019-03-17T09:49:13.554Z,51.50
2019-03-17T09:51:40.682Z,51.60
2019-03-17T09:54:07.806Z,51.60
2019-03-17T09:56:34.908Z,51.60
2019-03-17T09:59:02.024Z,51.60
2019-03-17T10:01:29.146Z,51.50
2019-03-17T10:03:56.320Z,51.60
2019-03-17T10:06:23.433Z,51.60
2019-03-17T10:08:59.333Z,51.50
2019-03-17T10:11:17.692Z,51.50
2019-03-17T10:13:44.813Z,51.50
2019-03-17T10:16:11.889Z,51.50
2019-03-17T10:18:38.988Z,51.60
2019-03-17T10:21:06.128Z,51.60
2019-03-17T10:23:33.270Z,51.60
2019-03-17T10:26:00.427Z,51.60
2019-03-17T10:28:27.544Z,51.60
2019-03-17T10:30:54.631Z,51.60
2019-03-17T10:33:21.726Z,51.50
2019-03-17T10:35:48.860Z,51.60
2019-03-17T10:38:15.985Z,51.50
2019-03-17T10:40:43.086Z,51.50
2019-03-17T10:43:10.176Z,51.50
2019-03-17T10:45:37.278Z,51.50
2019-03-17T10:48:04.395Z,51.50
2019-03-17T10:50:31.518Z,51.50
2019-03-17T10:52:58.637Z,51.50
2019-03-17T10:55:25.756Z,51.50
2019-03-17T10:57:52.861Z,51.50
2019-03-17T11:00:20.068Z,51.50
2019-03-17T11:02:47.166Z,51.50
2019-03-17T11:05:14.297Z,51.50
2019-03-17T11:07:41.481Z,51.50
2019-03-17T11:10:08.601Z,51.50
2019-03-17T11:12:35.705Z,51.50
2019-03-17T11:15:02.860Z,51.50
2019-03-17T11:17:29.949Z,51.60
2019-03-17T11:19:57.073Z,51.60
2019-03-17T11:22:24.205Z,51.60
2019-03-17T11:24:51.296Z,51.60
2019-03-17T11:27:18.416Z,51.60
2019-03-17T11:29:45.549Z,51.60
2019-03-17T11:32:12.666Z,51.60
2019-03-17T11:34:39.765Z,51.60
2019-03-17T11:37:06.843Z,51.60
2019-03-17T11:39:38.113Z,51.60
2019-03-17T11:42:01.110Z,51.60
2019-03-17T11:44:28.187Z,51.60
2019-03-17T11:46:55.456Z,51.60
2019-03-17T11:49:22.558Z,51.50
2019-03-17T11:51:49.661Z,51.50
2019-03-17T11:54:16.778Z,51.50
2019-03-17T11:56:43.912Z,51.50
2019-03-17T11:59:11.028Z,51.60
2019-03-17T12:01:38.134Z,51.60
2019-03-17T12:04:05.225Z,51.60
2019-03-17T12:06:32.352Z,51.60
2019-03-17T12:08:59.448Z,51.50
2019-03-17T12:11:26.545Z,51.60
2019-03-17T12:13:53.674Z,51.50
2019-03-17T12:16:20.842Z,51.60
2019-03-17T12:18:47.981Z,51.60
2019-03-17T12:21:15.059Z,51.60
2019-03-17T12:23:42.176Z,51.60
2019-03-17T12:26:09.273Z,51.60
2019-03-17T12:28:36.370Z,51.50
2019-03-17T12:31:03.477Z,51.50
2019-03-17T12:33:30.569Z,51.60
2019-03-17T12:35:58.130Z,52.10
2019-03-17T12:38:25.220Z,52.20
2019-03-17T12:40:52.333Z,51.50
2019-03-17T12:43:19.413Z,51.60
2019-03-17T12:45:46.535Z,51.60
2019-03-17T12:48:13.615Z,51.60
2019-03-17T12:50:40.710Z,51.60
2019-03-17T12:53:08.151Z,51.50
2019-03-17T12:55:34.932Z,51.60
2019-03-17T12:58:02.026Z,51.50
2019-03-17T13:00:29.152Z,51.60
2019-03-17T13:02:56.272Z,51.60
2019-03-17T13:05:23.361Z,51.60
2019-03-17T13:07:50.476Z,51.50
2019-03-17T13:10:17.601Z,51.60
2019-03-17T13:12:44.702Z,51.70
2019-03-17T13:15:11.845Z,51.60
2019-03-17T13:17:38.952Z,51.60
2019-03-17T13:20:06.875Z,51.60
2019-03-17T13:22:33.988Z,51.60
2019-03-17T13:25:01.078Z,51.70
2019-03-17T13:27:28.172Z,51.70
2019-03-17T13:29:55.304Z,51.80
2019-03-17T13:32:22.437Z,51.80
2019-03-17T13:34:49.552Z,51.80
2019-03-17T13:37:16.661Z,51.80
2019-03-17T13:39:43.756Z,51.80
2019-03-17T13:42:10.857Z,51.80
2019-03-17T13:44:37.936Z,51.90
2019-03-17T13:47:05.041Z,51.80
2019-03-17T13:49:32.137Z,51.80
2019-03-17T13:51:59.223Z,51.80
2019-03-17T13:54:26.328Z,51.80
2019-03-17T13:56:53.434Z,51.80
2019-03-17T13:59:20.572Z,51.80
2019-03-17T14:01:47.704Z,51.80
2019-03-17T14:04:17.633Z,51.80
2019-03-17T14:06:41.903Z,51.80
2019-03-17T14:09:09.009Z,51.80
2019-03-17T14:11:36.112Z,51.80
2019-03-17T14:14:03.241Z,51.80
2019-03-17T14:16:30.332Z,51.80
2019-03-17T14:18:57.441Z,51.80
2019-03-17T14:21:24.767Z,51.80
2019-03-17T14:23:51.683Z,51.80
2019-03-17T14:26:18.829Z,51.80
2019-03-17T14:28:45.964Z,51.80
2019-03-17T14:31:13.074Z,51.80
2019-03-17T14:33:40.182Z,51.80
2019-03-17T14:36:07.268Z,51.80
2019-03-17T14:38:34.398Z,51.70
2019-03-17T14:41:01.542Z,51.80
2019-03-17T14:43:28.646Z,51.80
2019-03-17T14:45:55.818Z,51.80
2019-03-17T14:48:22.913Z,51.80
2019-03-17T14:50:50.042Z,51.70
2019-03-17T14:53:17.169Z,51.80
2019-03-17T14:55:44.277Z,51.70
2019-03-17T14:58:11.373Z,51.70
2019-03-17T15:00:38.481Z,51.70
2019-03-17T15:03:05.572Z,51.70
2019-03-17T15:05:32.698Z,51.70
2019-03-17T15:07:59.817Z,51.70
2019-03-17T15:10:26.937Z,51.70
2019-03-17T15:12:54.053Z,51.70
2019-03-17T15:15:21.159Z,51.70
2019-03-17T15:17:48.296Z,51.70
2019-03-17T15:20:16.371Z,51.70
2019-03-17T15:22:43.480Z,51.70
2019-03-17T15:25:10.632Z,51.70
2019-03-17T15:27:37.723Z,51.70
2019-03-17T15:30:07.463Z,51.70
2019-03-17T15:32:34.600Z,51.80
2019-03-17T15:35:01.694Z,51.70
2019-03-17T15:37:28.773Z,51.70
2019-03-17T15:39:55.898Z,51.70
2019-03-17T15:42:23.048Z,51.80
2019-03-17T15:44:50.126Z,51.70
2019-03-17T15:47:17.212Z,51.70
2019-03-17T15:49:44.297Z,51.80
2019-03-17T15:52:11.421Z,51.80
2019-03-17T15:54:38.503Z,51.80
2019-03-17T15:57:05.657Z,51.80
2019-03-17T15:59:32.762Z,51.80
2019-03-17T16:01:59.917Z,51.80
2019-03-17T16:04:27.041Z,51.70
2019-03-17T16:06:54.133Z,51.70
2019-03-17T16:09:21.228Z,51.80
2019-03-17T16:11:48.316Z,51.70
2019-03-17T16:14:15.541Z,51.80
2019-03-17T16:16:42.630Z,51.80
2019-03-17T16:19:09.707Z,51.80
2019-03-17T16:21:36.820Z,51.80
2019-03-17T16:24:03.941Z,51.80
2019-03-17T16:26:31.040Z,51.70
2019-03-17T16:28:58.154Z,51.80
2019-03-17T16:31:25.289Z,51.80
2019-03-17T16:33:52.389Z,51.80
2019-03-17T16:36:19.489Z,51.80
2019-03-17T16:38:46.596Z,51.70
2019-03-17T16:41:13.718Z,51.80
2019-03-17T16:43:40.837Z,51.80
2019-03-17T16:46:07.905Z,51.80
2019-03-17T16:48:34.993Z,51.70
2019-03-17T16:51:02.105Z,51.80
2019-03-17T16:53:29.196Z,51.70
2019-03-17T16:55:56.333Z,51.70
2019-03-17T16:58:23.429Z,51.70
2019-03-17T17:00:50.517Z,51.70
2019-03-17T17:03:17.588Z,51.80
2019-03-17T17:05:44.701Z,51.70
2019-03-17T17:08:11.781Z,52.40
2019-03-17T17:10:39.167Z,51.70
2019-03-17T17:13:06.028Z,51.80
2019-03-17T17:15:33.152Z,51.80
2019-03-17T17:18:00.243Z,51.70
2019-03-17T17:20:27.646Z,51.70
2019-03-17T17:22:54.788Z,51.70
2019-03-17T17:25:21.898Z,51.70
2019-03-17T17:27:49.037Z,51.70
2019-03-17T17:30:16.148Z,51.80
2019-03-17T17:32:43.260Z,51.80
2019-03-17T17:35:10.397Z,51.80
2019-03-17T17:37:37.495Z,51.80
2019-03-17T17:40:04.882Z,51.80
2019-03-17T17:42:31.997Z,52.50
2019-03-17T17:44:59.112Z,51.80
2019-03-17T17:47:26.205Z,51.80
2019-03-17T17:49:53.330Z,51.80
2019-03-17T17:52:20.425Z,52.50
2019-03-17T17:54:47.512Z,51.80
2019-03-17T17:57:14.600Z,51.80
2019-03-17T17:59:41.690Z,51.80
2019-03-17T18:02:08.780Z,51.80
2019-03-17T18:04:35.869Z,51.80
2019-03-17T18:07:02.980Z,51.70
2019-03-17T18:09:30.054Z,51.80
2019-03-17T18:11:57.148Z,51.70
2019-03-17T18:14:24.241Z,51.70
2019-03-17T18:16:51.332Z,51.70
2019-03-17T18:19:18.450Z,51.60
2019-03-17T18:21:45.621Z,51.60
2019-03-17T18:24:12.703Z,51.60
2019-03-17T18:26:39.840Z,51.60
2019-03-17T18:29:06.937Z,51.50
2019-03-17T18:31:34.043Z,51.50
2019-03-17T18:34:01.141Z,51.50
2019-03-17T18:36:28.276Z,51.50
2019-03-17T18:38:55.368Z,51.40
2019-03-17T18:41:22.470Z,51.40
2019-03-17T18:43:49.566Z,51.40
2019-03-17T18:46:16.697Z,51.40
2019-03-17T18:48:44.100Z,51.40
2019-03-17T18:51:10.921Z,51.30
2019-03-17T18:53:38.081Z,51.20
2019-03-17T18:56:05.211Z,51.30
2019-03-17T18:58:32.308Z,51.20
2019-03-17T19:00:59.409Z,51.20
2019-03-17T19:03:26.506Z,51.20
2019-03-17T19:05:53.665Z,51.10
2019-03-17T19:08:20.762Z,51.10
2019-03-17T19:10:47.870Z,51.10
2019-03-17T19:13:14.980Z,51.10
2019-03-17T19:15:42.100Z,51.10
2019-03-17T19:18:09.212Z,51.00
2019-03-17T19:20:36.316Z,51.00
2019-03-17T19:23:03.436Z,50.90
2019-03-17T19:25:30.560Z,51.00
2019-03-17T19:27:57.693Z,50.90
2019-03-17T19:30:24.786Z,50.90
2019-03-17T19:32:52.638Z,50.90
2019-03-17T19:35:19.756Z,50.80
2019-03-17T19:37:46.876Z,50.80
2019-03-17T19:40:14.126Z,50.80
2019-03-17T19:42:41.230Z,50.80
2019-03-17T19:45:08.360Z,50.80
2019-03-17T19:47:35.477Z,50.70
2019-03-17T19:50:02.676Z,50.80
2019-03-17T19:52:29.780Z,50.80
2019-03-17T19:54:56.889Z,50.70
2019-03-17T19:57:24.002Z,50.70
2019-03-17T19:59:51.120Z,50.70
2019-03-17T20:02:18.222Z,50.70
2019-03-17T20:04:45.360Z,51.30
2019-03-17T20:07:12.521Z,50.50
2019-03-17T20:09:39.613Z,50.60
2019-03-17T20:12:06.736Z,50.60
2019-03-17T20:14:33.837Z,50.50
2019-03-17T20:17:00.961Z,50.50
2019-03-17T20:19:28.128Z,50.50
2019-03-17T20:21:55.214Z,50.50
2019-03-17T20:24:22.341Z,50.50
2019-03-17T20:26:49.464Z,50.40
2019-03-17T20:29:16.612Z,50.40
2019-03-17T20:31:43.704Z,50.40
2019-03-17T20:34:10.804Z,50.50
2019-03-17T20:36:37.929Z,50.40
2019-03-17T20:39:05.859Z,50.50
2019-03-17T20:41:33.054Z,50.50
2019-03-17T20:44:00.167Z,50.40
2019-03-17T20:46:27.264Z,50.40
2019-03-17T20:48:54.353Z,50.40
2019-03-17T20:51:21.465Z,50.30
2019-03-17T20:53:48.582Z,50.30
2019-03-17T20:56:15.726Z,50.40
2019-03-17T20:58:42.837Z,50.30
2019-03-17T21:01:09.950Z,50.30
2019-03-17T21:03:37.049Z,50.30
2019-03-17T21:06:04.164Z,50.30
2019-03-17T21:08:31.263Z,50.30
2019-03-17T21:10:58.381Z,50.20
2019-03-17T21:13:25.497Z,50.30
2019-03-17T21:15:52.592Z,50.30
2019-03-17T21:18:19.702Z,50.20
2019-03-17T21:20:46.808Z,50.30
2019-03-17T21:23:13.893Z,50.30
2019-03-17T21:25:41.025Z,50.20
2019-03-17T21:28:08.124Z,50.30
2019-03-17T21:30:35.204Z,50.30
2019-03-17T21:33:02.301Z,50.20
2019-03-17T21:35:29.410Z,50.30
2019-03-17T21:37:56.516Z,50.20
2019-03-17T21:40:23.637Z,50.20
2019-03-17T21:42:50.778Z,50.10
2019-03-17T21:45:17.865Z,50.20
2019-03-17T21:47:44.961Z,50.20
2019-03-17T21:50:13.385Z,50.20
2019-03-17T21:52:40.491Z,50.20
2019-03-17T21:55:07.642Z,50.20
2019-03-17T21:57:34.734Z,50.20
2019-03-17T22:00:01.854Z,50.20
2019-03-17T22:02:28.960Z,50.20
2019-03-17T22:04:56.068Z,50.80
2019-03-17T22:07:23.177Z,50.20
2019-03-17T22:09:50.324Z,50.10
2019-03-17T22:12:17.429Z,50.20
2019-03-17T22:14:44.568Z,50.10
2019-03-17T22:17:11.685Z,50.10
2019-03-17T22:19:38.790Z,50.20
2019-03-17T22:22:08.825Z,50.00
2019-03-17T22:24:33.014Z,50.10
2019-03-17T22:27:00.127Z,50.10
2019-03-17T22:29:27.237Z,50.10
2019-03-17T22:31:54.366Z,50.10
2019-03-17T22:34:21.492Z,50.10
2019-03-17T22:36:48.588Z,50.10
2019-03-17T22:39:15.694Z,50.10
2019-03-17T22:41:42.789Z,50.20
2019-03-17T22:44:09.894Z,50.10
2019-03-17T22:46:37.005Z,50.10
2019-03-17T22:49:04.365Z,50.10
2019-03-17T22:51:31.513Z,50.10
2019-03-17T22:53:58.648Z,50.10
2019-03-17T22:56:25.761Z,50.00
2019-03-17T22:58:52.895Z,50.00
2019-03-17T23:01:19.997Z,50.00
2019-03-17T23:03:47.368Z,49.90
2019-03-17T23:06:14.480Z,49.90
2019-03-17T23:08:41.580Z,50.00
2019-03-17T23:11:08.684Z,49.90
2019-03-17T23:13:35.769Z,50.00
2019-03-17T23:16:02.878Z,50.00
2019-03-17T23:18:29.975Z,49.90
2019-03-17T23:20:57.101Z,49.90
2019-03-17T23:23:24.221Z,49.80
2019-03-17T23:25:51.296Z,49.70
2019-03-17T23:28:18.401Z,49.90
2019-03-17T23:30:45.520Z,49.90
2019-03-17T23:33:12.606Z,49.90
2019-03-17T23:35:39.733Z,49.90
2019-03-17T23:38:06.833Z,49.80
2019-03-17T23:40:33.918Z,49.90
2019-03-17T23:43:01.010Z,49.80
2019-03-17T23:45:28.180Z,49.80
2019-03-17T23:47:55.292Z,49.80
2019-03-17T23:50:22.445Z,49.70
2019-03-17T23:52:49.568Z,49.80
2019-03-17T23:55:16.701Z,49.80
2019-03-17T23:57:43.811Z,49.90
